createdAt,value
2022-09-12T00:00:11.221Z,94703.16
2022-09-12T00:02:42.675Z,94701.00
2022-09-12T00:05:11.359Z,94704.78
2022-09-12T00:07:39.963Z,94709.88
2022-09-12T00:10:09.465Z,94704.25
2022-09-12T00:12:38.177Z,94706.13
2022-09-12T00:15:08.263Z,94703.78
2022-09-12T00:17:39.801Z,94709.09
2022-09-12T00:20:11.596Z,94714.44
2022-09-12T00:22:40.281Z,94714.41
2022-09-12T00:25:09.460Z,94703.22
2022-09-12T00:27:39.626Z,94693.09
2022-09-12T00:30:09.425Z,94697.09
2022-09-12T00:32:39.524Z,94697.06
2022-09-12T00:35:09.121Z,94696.00
2022-09-12T00:37:37.801Z,94690.44
2022-09-12T00:40:07.508Z,94700.56
2022-09-12T00:42:36.241Z,94692.88
2022-09-12T00:45:05.270Z,94704.31
2022-09-12T00:47:35.069Z,94689.13
2022-09-12T00:50:10.921Z,94692.59
2022-09-12T00:52:45.547Z,94701.16
2022-09-12T00:55:18.173Z,94703.00
2022-09-12T00:57:51.589Z,94709.13
2022-09-12T01:00:22.622Z,94706.19
2022-09-12T01:02:55.185Z,94700.31
2022-09-12T01:05:29.023Z,94694.44
2022-09-12T01:07:58.591Z,94696.03
2022-09-12T01:10:27.302Z,94703.78
2022-09-12T01:12:56.058Z,94692.34
2022-09-12T01:15:24.965Z,94692.88
2022-09-12T01:18:10.036Z,94702.75
2022-09-12T01:20:52.321Z,94699.00
2022-09-12T01:23:55.598Z,94707.00
2022-09-12T01:26:58.916Z,94703.81
2022-09-12T01:29:51.058Z,94696.63
2022-09-12T01:32:32.497Z,94696.88
2022-09-12T01:35:10.804Z,94699.53
2022-09-12T01:37:50.745Z,94702.47
2022-09-12T01:40:24.955Z,94698.22
2022-09-12T01:43:04.488Z,94700.06
2022-09-12T01:45:41.482Z,94709.13
2022-09-12T01:48:18.293Z,94707.53
2022-09-12T01:50:53.058Z,94710.97
2022-09-12T01:53:25.995Z,94712.59
2022-09-12T01:56:01.214Z,94712.03
2022-09-12T01:58:35.477Z,94699.53
2022-09-12T02:01:08.192Z,94710.72
2022-09-12T02:03:45.157Z,94709.94
2022-09-12T02:06:20.240Z,94700.88
2022-09-12T02:08:52.959Z,94703.28
2022-09-12T02:11:22.672Z,94697.41
2022-09-12T02:13:56.434Z,94706.94
2022-09-12T02:16:31.652Z,94703.75
2022-09-12T02:19:10.419Z,94697.13
2022-09-12T02:21:45.837Z,94699.22
2022-09-12T02:24:17.908Z,94700.03
2022-09-12T02:26:51.500Z,94696.81
2022-09-12T02:29:20.262Z,94694.41
2022-09-12T02:31:51.024Z,94696.28
2022-09-12T02:34:34.497Z,94697.94
2022-09-12T02:37:08.917Z,94693.69
2022-09-12T02:39:40.197Z,94691.81
2022-09-12T02:42:10.510Z,94700.28
2022-09-12T02:44:39.467Z,94700.34
2022-09-12T02:47:14.110Z,94698.72
2022-09-12T02:49:44.433Z,94707.25
2022-09-12T02:52:13.515Z,94707.22
2022-09-12T02:54:42.590Z,94700.63
2022-09-12T02:57:22.349Z,94708.06
2022-09-12T02:59:53.405Z,94706.44
2022-09-12T03:02:31.896Z,94708.63
2022-09-12T03:05:14.726Z,94713.38
2022-09-12T03:08:20.344Z,94711.25
2022-09-12T03:11:18.343Z,94707.53
2022-09-12T03:13:56.026Z,94699.81
2022-09-12T03:16:32.649Z,94712.59
2022-09-12T03:19:09.199Z,94696.06
2022-09-12T03:21:52.382Z,94701.69
2022-09-12T03:24:25.843Z,94694.22
2022-09-12T03:26:59.881Z,94699.22
2022-09-12T03:29:29.544Z,94696.53
2022-09-12T03:32:00.242Z,94689.31
2022-09-12T03:34:29.516Z,94696.00
2022-09-12T03:36:59.954Z,94690.09
2022-09-12T03:39:28.783Z,94688.53
2022-09-12T03:41:57.819Z,94688.53
2022-09-12T03:44:26.916Z,94687.97
2022-09-12T03:46:55.522Z,94689.03
2022-09-12T03:49:24.179Z,94689.84
2022-09-12T03:51:52.871Z,94697.28
2022-09-12T03:54:23.195Z,94695.72
2022-09-12T03:56:52.036Z,94691.97
2022-09-12T03:59:20.764Z,94696.00
2022-09-12T04:01:49.475Z,94698.06
2022-09-12T04:04:18.113Z,94697.28
2022-09-12T04:06:47.162Z,94698.53
2022-09-12T04:09:15.897Z,94706.28
2022-09-12T04:11:46.109Z,94701.47
2022-09-12T04:14:14.871Z,94709.47
2022-09-12T04:16:43.787Z,94710.59
2022-09-12T04:19:13.217Z,94718.03
2022-09-12T04:21:42.000Z,94705.00
2022-09-12T04:24:10.740Z,94710.63
2022-09-12T04:26:39.476Z,94711.97
2022-09-12T04:29:11.274Z,94720.00
2022-09-12T04:31:40.043Z,94718.69
2022-09-12T04:34:09.437Z,94717.59
2022-09-12T04:36:38.637Z,94721.91
2022-09-12T04:39:07.917Z,94727.97
2022-09-12T04:41:38.224Z,94721.38
2022-09-12T04:44:11.921Z,94726.47
2022-09-12T04:46:42.598Z,94736.03
2022-09-12T04:49:11.546Z,94737.91
2022-09-12T04:51:42.619Z,94736.06
2022-09-12T04:54:15.246Z,94739.78
2022-09-12T04:56:45.594Z,94743.78
2022-09-12T04:59:17.490Z,94743.19
2022-09-12T05:01:46.282Z,94737.28
2022-09-12T05:04:15.606Z,94750.69
2022-09-12T05:06:44.592Z,94750.47
2022-09-12T05:09:14.532Z,94750.13
2022-09-12T05:12:05.029Z,94749.06
2022-09-12T05:14:36.918Z,94752.78
2022-09-12T05:17:06.318Z,94760.09
2022-09-12T05:19:35.552Z,94749.47
2022-09-12T05:22:05.133Z,94754.47
2022-09-12T05:24:33.951Z,94760.19
2022-09-12T05:27:04.903Z,94736.91
2022-09-12T05:29:34.205Z,94740.41
2022-09-12T05:32:04.819Z,94749.31
2022-09-12T05:34:33.514Z,94748.63
2022-09-12T05:37:02.452Z,94742.06
2022-09-12T05:39:31.126Z,94748.63
2022-09-12T05:41:59.928Z,94756.09
2022-09-12T05:44:28.680Z,94750.63
2022-09-12T05:46:57.737Z,94756.94
2022-09-12T05:49:28.054Z,94759.84
2022-09-12T05:51:56.715Z,94757.59
2022-09-12T05:54:28.292Z,94753.53
2022-09-12T05:56:59.636Z,94759.72
2022-09-12T05:59:28.708Z,94756.72
2022-09-12T06:01:57.520Z,94745.66
2022-09-12T06:04:28.188Z,94746.66
2022-09-12T06:06:57.321Z,94735.47
2022-09-12T06:09:26.362Z,94735.75
2022-09-12T06:11:56.094Z,94731.72
2022-09-12T06:14:24.881Z,94739.38
2022-09-12T06:16:53.710Z,94746.81
2022-09-12T06:19:23.857Z,94737.50
2022-09-12T06:21:53.967Z,94741.38
2022-09-12T06:24:23.286Z,94728.69
2022-09-12T06:26:52.911Z,94734.88
2022-09-12T06:29:22.179Z,94730.09
2022-09-12T06:31:50.819Z,94741.03
2022-09-12T06:34:20.107Z,94746.41
2022-09-12T06:36:51.125Z,94747.63
2022-09-12T06:39:23.951Z,94730.09
2022-09-12T06:41:54.222Z,94745.38
2022-09-12T06:44:35.206Z,94743.22
2022-09-12T06:47:04.019Z,94736.50
2022-09-12T06:49:33.056Z,94745.41
2022-09-12T06:52:01.959Z,94745.53
2022-09-12T06:54:32.226Z,94736.38
2022-09-12T06:57:00.958Z,94747.31
2022-09-12T06:59:29.754Z,94752.38
2022-09-12T07:01:58.553Z,94755.38
2022-09-12T07:04:28.067Z,94758.69
2022-09-12T07:06:56.854Z,94748.91
2022-09-12T07:09:26.600Z,94748.75
2022-09-12T07:11:56.722Z,94754.41
2022-09-12T07:14:26.214Z,94754.88
2022-09-12T07:16:55.032Z,94755.16
2022-09-12T07:19:24.801Z,94759.94
2022-09-12T07:21:58.022Z,94762.41
2022-09-12T07:24:27.669Z,94751.84
2022-09-12T07:26:57.866Z,94759.81
2022-09-12T07:29:42.097Z,94756.94
2022-09-12T07:32:12.310Z,94767.38
2022-09-12T07:34:41.030Z,94770.06
2022-09-12T07:37:09.803Z,94772.00
2022-09-12T07:39:39.153Z,94769.09
2022-09-12T07:42:09.691Z,94770.22
2022-09-12T07:44:38.413Z,94768.28
2022-09-12T07:47:07.597Z,94764.88
2022-09-12T07:49:36.414Z,94767.19
2022-09-12T07:52:05.959Z,94771.03
2022-09-12T07:54:34.828Z,94767.59
2022-09-12T07:57:03.648Z,94780.69
2022-09-12T07:59:52.051Z,94777.06
2022-09-12T08:02:21.766Z,94784.28
2022-09-12T08:04:51.613Z,94783.09
2022-09-12T08:07:20.408Z,94787.94
2022-09-12T08:09:49.112Z,94785.16
2022-09-12T08:12:20.476Z,94787.38
2022-09-12T08:14:50.646Z,94795.81
2022-09-12T08:17:19.311Z,94797.97
2022-09-12T08:19:48.435Z,94798.56
2022-09-12T08:22:17.367Z,94795.75
2022-09-12T08:24:46.001Z,94791.56
2022-09-12T08:27:14.926Z,94787.78
2022-09-12T08:29:43.865Z,94791.03
2022-09-12T08:32:14.202Z,94789.16
2022-09-12T08:34:42.941Z,94781.91
2022-09-12T08:37:11.902Z,94781.91
2022-09-12T08:39:40.650Z,94788.00
2022-09-12T08:42:14.543Z,94784.56
2022-09-12T08:44:54.767Z,94785.78
2022-09-12T08:47:30.290Z,94779.56
2022-09-12T08:50:07.834Z,94785.06
2022-09-12T08:52:42.296Z,94780.47
2022-09-12T08:55:28.860Z,94776.06
2022-09-12T08:57:57.610Z,94784.72
2022-09-12T09:00:32.987Z,94786.38
2022-09-12T09:03:21.276Z,94773.00
2022-09-12T09:05:53.354Z,94776.13
2022-09-12T09:08:37.190Z,94771.63
2022-09-12T09:11:19.839Z,94773.19
2022-09-12T09:14:23.002Z,94779.47
2022-09-12T09:16:54.320Z,94779.25
2022-09-12T09:19:29.007Z,94771.47
2022-09-12T09:22:02.144Z,94768.88
2022-09-12T09:24:40.008Z,94774.94
2022-09-12T09:27:36.812Z,94769.34
2022-09-12T09:30:04.519Z,94765.59
2022-09-12T09:32:38.214Z,94772.59
2022-09-12T09:35:18.898Z,94771.31
2022-09-12T09:38:02.615Z,94769.91
2022-09-12T09:40:44.308Z,94760.03
2022-09-12T09:43:23.126Z,94763.53
2022-09-12T09:45:53.299Z,94766.22
2022-09-12T09:48:27.180Z,94768.13
2022-09-12T09:51:00.302Z,94760.53
2022-09-12T09:53:38.556Z,94763.06
2022-09-12T09:56:14.317Z,94752.41
2022-09-12T09:58:43.768Z,94755.84
2022-09-12T10:01:18.443Z,94753.19
2022-09-12T10:03:51.902Z,94756.94
2022-09-12T10:06:40.453Z,94754.75
2022-09-12T10:09:21.596Z,94753.19
2022-09-12T10:11:53.921Z,94745.53
2022-09-12T10:14:35.198Z,94760.50
2022-09-12T10:17:23.805Z,94748.25
2022-09-12T10:20:10.421Z,94752.09
2022-09-12T10:22:49.120Z,94758.28
2022-09-12T10:25:20.079Z,94759.03
2022-09-12T10:27:55.333Z,94764.06
2022-09-12T10:30:28.739Z,94762.56
2022-09-12T10:33:05.502Z,94765.97
2022-09-12T10:35:46.584Z,94761.97
2022-09-12T10:38:22.837Z,94761.81
2022-09-12T10:40:59.996Z,94763.81
2022-09-12T10:43:31.423Z,94759.22
2022-09-12T10:46:01.913Z,94758.63
2022-09-12T10:48:32.749Z,94771.28
2022-09-12T10:51:02.417Z,94769.13
2022-09-12T10:53:40.794Z,94769.53
2022-09-12T10:56:13.904Z,94767.53
2022-09-12T10:58:55.218Z,94767.25
2022-09-12T11:01:36.783Z,94774.00
2022-09-12T11:04:27.887Z,94771.00
2022-09-12T11:07:16.469Z,94768.53
2022-09-12T11:09:55.331Z,94776.88
2022-09-12T11:12:36.012Z,94769.34
2022-09-12T11:15:18.365Z,94758.78
2022-09-12T11:17:55.760Z,94761.06
2022-09-12T11:20:52.995Z,94766.16
2022-09-12T11:23:44.554Z,94771.50
2022-09-12T11:26:26.825Z,94762.69
2022-09-12T11:29:04.580Z,94763.13
2022-09-12T11:31:47.987Z,94752.72
2022-09-12T11:34:28.362Z,94755.25
2022-09-12T11:37:17.417Z,94746.34
2022-09-12T11:39:54.734Z,94753.03
2022-09-12T11:42:31.463Z,94765.44
2022-09-12T11:45:09.509Z,94755.84
2022-09-12T11:47:39.303Z,94741.28
2022-09-12T11:50:26.915Z,94732.72
2022-09-12T11:53:01.646Z,94746.06
2022-09-12T11:55:39.226Z,94737.38
2022-09-12T11:58:10.708Z,94741.50
2022-09-12T12:00:44.308Z,94732.19
2022-09-12T12:03:19.536Z,94732.63
2022-09-12T12:05:55.048Z,94740.88
2022-09-12T12:08:25.582Z,94735.81
2022-09-12T12:10:57.739Z,94735.50
2022-09-12T12:13:31.164Z,94741.31
2022-09-12T12:16:05.154Z,94735.41
2022-09-12T12:18:35.863Z,94743.31
2022-09-12T12:21:23.360Z,94749.84
2022-09-12T12:24:06.219Z,94733.78
2022-09-12T12:26:57.508Z,94748.75
2022-09-12T12:29:44.063Z,94748.00
2022-09-12T12:32:26.875Z,94746.53
2022-09-12T12:35:37.449Z,94751.88
2022-09-12T12:38:27.577Z,94743.13
2022-09-12T12:41:16.672Z,94748.97
2022-09-12T12:43:46.303Z,94737.66
2022-09-12T12:46:17.994Z,94746.75
2022-09-12T12:48:55.287Z,94737.72
2022-09-12T12:51:45.605Z,94739.03
2022-09-12T12:54:32.033Z,94733.84
2022-09-12T12:57:19.011Z,94728.59
2022-09-12T12:59:50.490Z,94724.34
2022-09-12T13:02:28.521Z,94730.09
2022-09-12T13:04:58.310Z,94726.78
2022-09-12T13:07:31.656Z,94714.03
2022-09-12T13:10:02.883Z,94714.91
2022-09-12T13:12:35.034Z,94716.19
2022-09-12T13:15:05.883Z,94710.69
2022-09-12T13:17:39.561Z,94721.81
2022-09-12T13:20:28.727Z,94711.78
2022-09-12T13:22:58.982Z,94711.56
2022-09-12T13:25:31.200Z,94708.00
2022-09-12T13:28:07.484Z,94708.38
2022-09-12T13:30:38.596Z,94703.47
2022-09-12T13:33:21.979Z,94704.41
2022-09-12T13:36:09.952Z,94704.22
2022-09-12T13:38:49.578Z,94702.41
2022-09-12T13:41:35.221Z,94703.41
2022-09-12T13:44:05.356Z,94701.38
2022-09-12T13:46:36.018Z,94690.13
2022-09-12T13:49:18.055Z,94702.97
2022-09-12T13:51:47.220Z,94695.00
2022-09-12T13:54:24.324Z,94699.78
2022-09-12T13:56:53.240Z,94700.47
2022-09-12T13:59:22.072Z,94699.06
2022-09-12T14:01:50.863Z,94707.72
2022-09-12T14:04:41.359Z,94711.41
2022-09-12T14:07:15.326Z,94709.09
2022-09-12T14:09:47.339Z,94707.03
2022-09-12T14:12:25.371Z,94717.66
2022-09-12T14:14:55.003Z,94709.81
2022-09-12T14:17:30.017Z,94726.13
2022-09-12T14:20:04.024Z,94722.56
2022-09-12T14:22:36.477Z,94721.66
2022-09-12T14:25:10.476Z,94728.19
2022-09-12T14:27:45.975Z,94727.84
2022-09-12T14:30:24.641Z,94727.03
2022-09-12T14:33:18.223Z,94721.97
2022-09-12T14:35:49.003Z,94718.38
2022-09-12T14:38:25.955Z,94722.03
2022-09-12T14:41:01.412Z,94713.31
2022-09-12T14:43:32.629Z,94724.25
2022-09-12T14:46:04.718Z,94718.91
2022-09-12T14:48:37.707Z,94727.47
2022-09-12T14:51:08.154Z,94728.94
2022-09-12T14:53:39.473Z,94726.44
2022-09-12T14:56:10.826Z,94732.81
2022-09-12T14:58:41.018Z,94732.44
2022-09-12T15:01:28.220Z,94729.09
2022-09-12T15:03:57.833Z,94712.03
2022-09-12T15:06:30.458Z,94713.00
2022-09-12T15:09:02.136Z,94711.13
2022-09-12T15:11:30.990Z,94704.28
2022-09-12T15:13:59.780Z,94711.44
2022-09-12T15:16:28.586Z,94708.13
2022-09-12T15:18:57.295Z,94713.38
2022-09-12T15:21:26.421Z,94713.31
2022-09-12T15:23:56.788Z,94718.69
2022-09-12T15:26:27.774Z,94717.75
2022-09-12T15:28:56.562Z,94707.63
2022-09-12T15:31:27.338Z,94704.75
2022-09-12T15:33:57.970Z,94699.47
2022-09-12T15:36:29.167Z,94698.06
2022-09-12T15:38:59.428Z,94697.69
2022-09-12T15:41:33.066Z,94698.88
2022-09-12T15:44:01.970Z,94697.66
2022-09-12T15:46:31.069Z,94688.13
2022-09-12T15:49:00.139Z,94689.22
2022-09-12T15:51:29.113Z,94695.44
2022-09-12T15:53:59.648Z,94688.47
2022-09-12T15:56:28.545Z,94688.38
2022-09-12T15:58:59.864Z,94692.72
2022-09-12T16:01:29.983Z,94696.09
2022-09-12T16:03:59.202Z,94699.66
2022-09-12T16:06:33.568Z,94700.66
2022-09-12T16:09:05.438Z,94697.53
2022-09-12T16:11:34.407Z,94697.53
2022-09-12T16:14:03.951Z,94700.13
2022-09-12T16:16:33.219Z,94693.44
2022-09-12T16:19:02.149Z,94690.47
2022-09-12T16:21:31.267Z,94686.00
2022-09-12T16:24:00.111Z,94698.47
2022-09-12T16:26:30.553Z,94691.38
2022-09-12T16:29:00.525Z,94690.41
2022-09-12T16:31:31.274Z,94688.06
2022-09-12T16:34:00.243Z,94691.34
2022-09-12T16:36:29.211Z,94690.34
2022-09-12T16:38:58.082Z,94696.38
2022-09-12T16:41:27.352Z,94701.03
2022-09-12T16:43:57.765Z,94707.25
2022-09-12T16:46:28.879Z,94695.78
2022-09-12T16:48:59.544Z,94703.63
2022-09-12T16:51:31.762Z,94709.94
2022-09-12T16:54:00.843Z,94711.94
2022-09-12T16:56:29.860Z,94703.56
2022-09-12T16:59:00.182Z,94704.44
2022-09-12T17:01:29.212Z,94708.66
2022-09-12T17:03:59.936Z,94709.28
2022-09-12T17:06:29.397Z,94709.28
2022-09-12T17:09:03.107Z,94712.97
2022-09-12T17:11:34.059Z,94715.44
2022-09-12T17:14:07.422Z,94723.53
2022-09-12T17:16:38.469Z,94713.91
2022-09-12T17:19:08.676Z,94717.22
2022-09-12T17:21:37.799Z,94729.00
2022-09-12T17:24:07.133Z,94720.53
2022-09-12T17:26:36.064Z,94725.16
2022-09-12T17:29:06.581Z,94731.09
2022-09-12T17:31:35.641Z,94722.91
2022-09-12T17:34:05.151Z,94734.22
2022-09-12T17:36:34.352Z,94735.63
2022-09-12T17:39:04.699Z,94735.00
2022-09-12T17:41:34.009Z,94743.63
2022-09-12T17:44:03.841Z,94742.63
2022-09-12T17:46:36.055Z,94737.88
2022-09-12T17:49:07.239Z,94736.31
2022-09-12T17:51:36.984Z,94740.91
2022-09-12T17:54:09.520Z,94734.78
2022-09-12T17:56:38.727Z,94744.44
2022-09-12T17:59:09.127Z,94753.06
2022-09-12T18:01:56.495Z,94750.91
2022-09-12T18:04:25.181Z,94749.88
2022-09-12T18:06:54.265Z,94761.13
2022-09-12T18:09:25.323Z,94754.97
2022-09-12T18:11:54.645Z,94754.19
2022-09-12T18:14:25.026Z,94748.56
2022-09-12T18:17:00.285Z,94752.84
2022-09-12T18:19:29.669Z,94763.53
2022-09-12T18:21:58.845Z,94756.84
2022-09-12T18:24:27.856Z,94759.03
2022-09-12T18:26:57.902Z,94765.19
2022-09-12T18:29:28.174Z,94759.56
2022-09-12T18:31:58.507Z,94758.00
2022-09-12T18:34:27.453Z,94759.06
2022-09-12T18:36:56.412Z,94764.41
2022-09-12T18:39:27.743Z,94759.03
2022-09-12T18:41:57.489Z,94759.06
2022-09-12T18:44:26.387Z,94760.16
2022-09-12T18:46:55.265Z,94755.31
2022-09-12T18:49:25.871Z,94759.56
2022-09-12T18:51:54.774Z,94752.41
2022-09-12T18:54:23.660Z,94747.66
2022-09-12T18:56:52.564Z,94752.25
2022-09-12T18:59:21.257Z,94753.59
2022-09-12T19:01:50.429Z,94753.84
2022-09-12T19:04:19.502Z,94760.78
2022-09-12T19:06:50.620Z,94757.06
2022-09-12T19:09:21.913Z,94762.38
2022-09-12T19:11:51.018Z,94750.13
2022-09-12T19:14:22.688Z,94750.13
2022-09-12T19:16:52.315Z,94757.03
2022-09-12T19:19:21.556Z,94750.63
2022-09-12T19:21:51.751Z,94759.69
2022-09-12T19:24:21.951Z,94756.75
2022-09-12T19:26:51.094Z,94760.28
2022-09-12T19:29:20.174Z,94757.09
2022-09-12T19:31:49.213Z,94753.38
2022-09-12T19:34:18.248Z,94763.81
2022-09-12T19:36:47.617Z,94756.31
2022-09-12T19:39:19.897Z,94764.03
2022-09-12T19:41:49.446Z,94762.16
2022-09-12T19:44:19.407Z,94762.44
2022-09-12T19:46:48.477Z,94757.38
2022-09-12T19:49:17.406Z,94757.34
2022-09-12T19:51:46.011Z,94754.69
2022-09-12T19:54:14.813Z,94759.50
2022-09-12T19:56:45.046Z,94760.28
2022-09-12T19:59:13.895Z,94769.31
2022-09-12T20:01:42.888Z,94765.59
2022-09-12T20:04:12.006Z,94774.88
2022-09-12T20:06:40.739Z,94775.13
2022-09-12T20:09:09.427Z,94772.88
2022-09-12T20:11:38.232Z,94768.09
2022-09-12T20:14:08.476Z,94764.28
2022-09-12T20:16:37.155Z,94764.03
2022-09-12T20:19:08.671Z,94766.91
2022-09-12T20:21:38.195Z,94762.38
2022-09-12T20:24:08.671Z,94766.03
2022-09-12T20:26:38.025Z,94761.78
2022-09-12T20:29:08.512Z,94762.84
2022-09-12T20:31:38.800Z,94768.25
2022-09-12T20:34:08.208Z,94771.22
2022-09-12T20:36:36.837Z,94768.84
2022-09-12T20:39:06.098Z,94765.91
2022-09-12T20:41:36.608Z,94767.78
2022-09-12T20:44:05.317Z,94763.81
2022-09-12T20:46:35.666Z,94769.63
2022-09-12T20:49:04.905Z,94757.91
2022-09-12T20:51:33.834Z,94768.03
2022-09-12T20:54:04.360Z,94768.00
2022-09-12T20:56:34.713Z,94767.75
2022-09-12T20:59:03.476Z,94769.56
2022-09-12T21:01:33.086Z,94782.03
2022-09-12T21:04:03.698Z,94771.59
2022-09-12T21:06:33.032Z,94769.97
2022-09-12T21:09:01.778Z,94771.84
2022-09-12T21:11:30.970Z,94777.13
2022-09-12T21:13:59.709Z,94776.63
2022-09-12T21:16:28.582Z,94773.16
2022-09-12T21:19:00.247Z,94774.72
2022-09-12T21:21:30.288Z,94778.66
2022-09-12T21:24:00.362Z,94771.75
2022-09-12T21:26:29.158Z,94779.22
2022-09-12T21:28:57.973Z,94782.66
2022-09-12T21:31:27.070Z,94785.84
2022-09-12T21:33:56.008Z,94786.91
2022-09-12T21:36:25.762Z,94792.22
2022-09-12T21:38:59.280Z,94798.66
2022-09-12T21:41:28.900Z,94804.00
2022-09-12T21:43:57.584Z,94802.72
2022-09-12T21:46:26.422Z,94805.75
2022-09-12T21:48:55.095Z,94795.75
2022-09-12T21:51:23.763Z,94793.41
2022-09-12T21:53:52.440Z,94783.25
2022-09-12T21:56:22.621Z,94783.19
2022-09-12T21:58:51.613Z,94788.00
2022-09-12T22:01:20.529Z,94787.47
2022-09-12T22:03:50.233Z,94783.00
2022-09-12T22:06:22.389Z,94780.59
2022-09-12T22:08:51.362Z,94790.97
2022-09-12T22:11:20.713Z,94782.16
2022-09-12T22:13:50.748Z,94784.25
2022-09-12T22:16:19.728Z,94788.94
2022-09-12T22:18:48.603Z,94787.25
2022-09-12T22:21:20.847Z,94786.91
2022-09-12T22:24:07.012Z,94787.69
2022-09-12T22:26:43.410Z,94786.00
2022-09-12T22:29:14.767Z,94789.38
2022-09-12T22:31:43.783Z,94782.09
2022-09-12T22:34:12.380Z,94783.06
2022-09-12T22:36:41.570Z,94778.78
2022-09-12T22:39:10.378Z,94777.34
2022-09-12T22:41:39.245Z,94779.81
2022-09-12T22:44:08.007Z,94784.19
2022-09-12T22:46:39.529Z,94782.88
2022-09-12T22:49:08.822Z,94777.13
2022-09-12T22:51:37.621Z,94780.34
2022-09-12T22:54:07.024Z,94773.16
2022-09-12T22:56:36.061Z,94779.91
2022-09-12T22:59:04.856Z,94771.31
2022-09-12T23:01:33.808Z,94769.72
2022-09-12T23:04:05.135Z,94771.63
2022-09-12T23:06:33.939Z,94767.59
2022-09-12T23:09:02.641Z,94770.25
2022-09-12T23:11:31.413Z,94756.72
2022-09-12T23:14:00.183Z,94754.06
2022-09-12T23:16:31.312Z,94767.91
2022-09-12T23:19:00.499Z,94768.78
2022-09-12T23:21:30.696Z,94759.69
2022-09-12T23:23:59.450Z,94769.22
2022-09-12T23:26:29.745Z,94765.19
2022-09-12T23:29:00.391Z,94756.72
2022-09-12T23:31:31.251Z,94762.59
2022-09-12T23:34:02.732Z,94753.53
2022-09-12T23:36:33.535Z,94755.94
2022-09-12T23:39:02.545Z,94754.63
2022-09-12T23:41:31.406Z,94751.34
2022-09-12T23:44:00.876Z,94752.53
2022-09-12T23:46:29.599Z,94753.78
2022-09-12T23:49:01.390Z,94746.66
2022-09-12T23:51:30.446Z,94744.41
2022-09-12T23:54:00.607Z,94744.31
2022-09-12T23:56:29.282Z,94745.50
2022-09-12T23:58:57.981Z,94743.91
